createdAt,value
2018-10-01T00:00:13.710Z,94816.00
2018-10-01T00:02:44.619Z,94809.00
2018-10-01T00:05:15.531Z,94809.00
2018-10-01T00:07:46.443Z,94804.00
2018-10-01T00:10:17.335Z,94796.00
2018-10-01T00:12:48.426Z,94801.00
2018-10-01T00:15:19.272Z,94809.00
2018-10-01T00:17:50.171Z,94801.00
2018-10-01T00:20:26.610Z,94806.00
2018-10-01T00:22:57.501Z,94805.00
2018-10-01T00:25:28.345Z,94802.00
2018-10-01T00:27:59.348Z,94802.00
2018-10-01T00:30:30.273Z,94798.00
2018-10-01T00:33:01.045Z,94795.00
2018-10-01T00:35:31.883Z,94790.00
2018-10-01T00:38:02.758Z,94791.00
2018-10-01T00:40:33.638Z,94793.00
2018-10-01T00:43:04.526Z,94792.00
2018-10-01T00:45:35.265Z,94789.00
2018-10-01T00:48:06.089Z,94788.00
2018-10-01T00:50:36.803Z,94788.00
2018-10-01T00:53:07.842Z,94779.00
2018-10-01T00:55:38.850Z,94786.00
2018-10-01T00:58:09.775Z,94787.00
2018-10-01T01:00:40.552Z,94781.00
2018-10-01T01:03:11.303Z,94776.00
2018-10-01T01:05:42.285Z,94772.00
2018-10-01T01:08:12.940Z,94773.00
2018-10-01T01:10:43.674Z,94767.00
2018-10-01T01:13:14.458Z,94762.00
2018-10-01T01:15:45.188Z,94762.00
2018-10-01T01:18:16.406Z,94760.00
2018-10-01T01:20:47.082Z,94759.00
2018-10-01T01:23:17.846Z,94759.00
2018-10-01T01:25:48.540Z,94754.00
2018-10-01T01:28:19.301Z,94753.00
2018-10-01T01:30:49.966Z,94752.00
2018-10-01T01:33:20.702Z,94744.00
2018-10-01T01:35:51.343Z,94738.00
2018-10-01T01:38:22.126Z,94735.00
2018-10-01T01:40:52.907Z,94732.00
2018-10-01T01:43:24.344Z,94724.00
2018-10-01T01:45:55.068Z,94728.00
2018-10-01T01:48:25.881Z,94724.00
2018-10-01T01:50:56.601Z,94717.00
2018-10-01T01:53:27.366Z,94720.00
2018-10-01T01:55:58.106Z,94718.00
2018-10-01T01:58:28.835Z,94722.00
2018-10-01T02:00:59.696Z,94722.00
2018-10-01T02:03:30.693Z,94722.00
2018-10-01T02:06:01.392Z,94717.00
2018-10-01T02:08:32.150Z,94699.00
2018-10-01T02:11:02.891Z,94682.00
2018-10-01T02:13:33.635Z,94674.00
2018-10-01T02:16:04.929Z,94671.00
2018-10-01T02:18:35.734Z,94673.00
2018-10-01T02:21:06.546Z,94676.00
2018-10-01T02:23:37.394Z,94682.00
2018-10-01T02:26:08.421Z,94684.00
2018-10-01T02:28:39.183Z,94684.00
2018-10-01T02:31:09.995Z,94689.00
2018-10-01T02:33:40.766Z,94690.00
2018-10-01T02:36:11.462Z,94686.00
2018-10-01T02:38:42.261Z,94691.00
2018-10-01T02:41:13.094Z,94694.00
2018-10-01T02:43:43.825Z,94684.00
2018-10-01T02:46:14.962Z,94685.00
2018-10-01T02:48:45.835Z,94684.00
2018-10-01T02:51:16.543Z,94689.00
2018-10-01T02:53:52.451Z,94693.00
2018-10-01T02:56:23.221Z,94686.00
2018-10-01T02:58:53.962Z,94684.00
2018-10-01T03:01:24.617Z,94683.00
2018-10-01T03:03:55.467Z,94678.00
2018-10-01T03:06:26.291Z,94679.00
2018-10-01T03:08:57.021Z,94680.00
2018-10-01T03:11:27.863Z,94679.00
2018-10-01T03:13:58.705Z,94680.00
2018-10-01T03:16:29.448Z,94682.00
2018-10-01T03:19:00.523Z,94688.00
2018-10-01T03:21:31.387Z,94684.00
2018-10-01T03:24:02.334Z,94684.00
2018-10-01T03:26:33.409Z,94682.00
2018-10-01T03:29:04.293Z,94675.00
2018-10-01T03:31:35.198Z,94678.00
2018-10-01T03:34:06.043Z,94674.00
2018-10-01T03:36:36.846Z,94673.00
2018-10-01T03:39:10.946Z,94673.00
2018-10-01T03:41:41.755Z,94667.00
2018-10-01T03:44:12.579Z,94676.00
2018-10-01T03:46:43.510Z,94683.00
2018-10-01T03:49:14.510Z,94678.00
2018-10-01T03:51:45.373Z,94679.00
2018-10-01T03:54:16.277Z,94675.00
2018-10-01T03:56:47.129Z,94673.00
2018-10-01T03:59:18.024Z,94673.00
2018-10-01T04:01:48.927Z,94660.00
2018-10-01T04:04:22.679Z,94662.00
2018-10-01T04:06:53.405Z,94661.00
2018-10-01T04:09:24.209Z,94662.00
2018-10-01T04:11:54.886Z,94661.00
2018-10-01T04:14:25.609Z,94663.00
2018-10-01T04:16:56.348Z,94661.00
2018-10-01T04:19:27.003Z,94663.00
2018-10-01T04:21:57.643Z,94664.00
2018-10-01T04:24:28.378Z,94663.00
2018-10-01T04:26:59.093Z,94663.00
2018-10-01T04:29:29.846Z,94657.00
2018-10-01T04:32:00.606Z,94656.00
2018-10-01T04:34:31.284Z,94637.00
2018-10-01T04:37:01.924Z,94643.00
2018-10-01T04:39:32.697Z,94644.00
2018-10-01T04:42:03.426Z,94645.00
2018-10-01T04:44:34.183Z,94642.00
2018-10-01T04:47:04.985Z,94642.00
2018-10-01T04:49:35.763Z,94648.00
2018-10-01T04:52:06.689Z,94649.00
2018-10-01T04:54:37.647Z,94651.00
2018-10-01T04:57:08.568Z,94653.00
2018-10-01T04:59:39.435Z,94653.00
2018-10-01T05:02:10.309Z,94659.00
2018-10-01T05:04:41.493Z,94658.00
2018-10-01T05:07:12.406Z,94660.00
2018-10-01T05:09:43.670Z,94660.00
2018-10-01T05:12:14.589Z,94652.00
2018-10-01T05:14:46.487Z,94650.00
2018-10-01T05:17:17.840Z,94652.00
2018-10-01T05:19:48.753Z,94660.00
2018-10-01T05:22:20.079Z,94658.00
2018-10-01T05:24:51.169Z,94654.00
2018-10-01T05:27:21.996Z,94655.00
2018-10-01T05:29:53.005Z,94656.00
2018-10-01T05:32:23.909Z,94644.00
2018-10-01T05:34:54.794Z,94654.00
2018-10-01T05:37:25.735Z,94655.00
2018-10-01T05:39:56.713Z,94649.00
2018-10-01T05:42:27.496Z,94645.00
2018-10-01T05:44:58.424Z,94659.00
2018-10-01T05:47:29.207Z,94668.00
2018-10-01T05:49:59.972Z,94668.00
2018-10-01T05:52:30.961Z,94668.00
2018-10-01T05:55:01.791Z,94678.00
2018-10-01T05:57:33.172Z,94683.00
2018-10-01T06:00:04.008Z,94678.00
2018-10-01T06:02:34.770Z,94686.00
2018-10-01T06:05:05.902Z,94683.00
2018-10-01T06:07:36.861Z,94687.00
2018-10-01T06:10:07.673Z,94699.00
2018-10-01T06:12:38.446Z,94699.00
2018-10-01T06:15:09.286Z,94692.00
2018-10-01T06:17:39.998Z,94706.00
2018-10-01T06:20:10.729Z,94719.00
2018-10-01T06:22:41.403Z,94727.00
2018-10-01T06:25:12.212Z,94726.00
2018-10-01T06:27:42.875Z,94730.00
2018-10-01T06:30:14.189Z,94732.00
2018-10-01T06:32:44.835Z,94742.00
2018-10-01T06:35:15.603Z,94744.00
2018-10-01T06:37:46.349Z,94745.00
2018-10-01T06:40:17.130Z,94746.00
2018-10-01T06:42:47.925Z,94750.00
2018-10-01T06:45:18.723Z,94743.00
2018-10-01T06:47:49.463Z,94744.00
2018-10-01T06:50:20.282Z,94741.00
2018-10-01T06:52:51.081Z,94740.00
2018-10-01T06:55:21.924Z,94747.00
2018-10-01T06:57:52.630Z,94755.00
2018-10-01T07:00:23.506Z,94752.00
2018-10-01T07:02:55.508Z,94756.00
2018-10-01T07:06:06.861Z,94750.00
2018-10-01T07:26:34.208Z,94778.00
2018-10-01T07:29:16.941Z,94780.00
2018-10-01T07:34:58.938Z,94786.00
2018-10-01T07:37:52.119Z,94793.00
2018-10-01T07:40:25.826Z,94791.00
2018-10-01T07:42:56.803Z,94789.00
2018-10-01T07:45:27.831Z,94789.00
2018-10-01T07:47:58.756Z,94789.00
2018-10-01T07:50:30.657Z,94798.00
2018-10-01T07:53:07.227Z,94797.00
2018-10-01T07:55:38.243Z,94799.00
2018-10-01T07:58:09.208Z,94798.00
2018-10-01T08:00:45.845Z,94798.00
2018-10-01T08:03:16.857Z,94805.00
2018-10-01T08:05:47.617Z,94809.00
2018-10-01T08:08:18.500Z,94808.00
2018-10-01T08:10:49.247Z,94820.00
2018-10-01T08:13:20.007Z,94823.00
2018-10-01T08:15:50.857Z,94819.00
2018-10-01T08:18:21.608Z,94827.00
2018-10-01T08:20:52.240Z,94831.00
2018-10-01T08:23:23.372Z,94826.00
2018-10-01T08:25:54.817Z,94829.00
2018-10-01T08:28:25.560Z,94832.00
2018-10-01T08:30:57.290Z,94840.00
2018-10-01T08:33:28.207Z,94843.00
2018-10-01T08:35:59.037Z,94844.00
2018-10-01T08:38:30.763Z,94843.00
2018-10-01T08:41:01.748Z,94847.00
2018-10-01T08:43:32.529Z,94838.00
2018-10-01T08:46:04.104Z,94840.00
2018-10-01T08:48:37.012Z,94845.00
2018-10-01T08:51:18.954Z,94844.00
2018-10-01T08:54:52.191Z,94844.00
2018-10-01T08:57:25.273Z,94854.00
2018-10-01T08:59:56.232Z,94854.00
2018-10-01T09:02:27.555Z,94855.00
2018-10-01T09:04:58.425Z,94855.00
2018-10-01T09:07:36.956Z,94857.00
2018-10-01T09:10:07.912Z,94862.00
2018-10-01T09:12:44.397Z,94872.00
2018-10-01T09:15:15.207Z,94871.00
2018-10-01T09:17:45.978Z,94880.00
2018-10-01T09:20:16.814Z,94878.00
2018-10-01T09:22:47.561Z,94879.00
2018-10-01T09:25:18.490Z,94881.00
2018-10-01T09:27:49.250Z,94877.00
2018-10-01T09:30:20.026Z,94883.00
2018-10-01T09:32:51.411Z,94883.00
2018-10-01T09:35:22.241Z,94881.00
2018-10-01T09:37:53.190Z,94885.00
2018-10-01T09:40:24.236Z,94884.00
2018-10-01T09:42:55.017Z,94888.00
2018-10-01T09:45:27.200Z,94892.00
2018-10-01T09:47:57.999Z,94889.00
2018-10-01T09:50:28.736Z,94893.00
2018-10-01T09:52:59.419Z,94898.00
2018-10-01T09:55:30.659Z,94896.00
2018-10-01T09:58:01.457Z,94901.00
2018-10-01T10:00:37.273Z,94909.00
2018-10-01T10:03:08.032Z,94911.00
2018-10-01T10:05:39.186Z,94913.00
2018-10-01T10:08:09.951Z,94924.00
2018-10-01T10:10:41.363Z,94927.00
2018-10-01T10:13:12.134Z,94937.00
2018-10-01T10:15:43.879Z,94933.00
2018-10-01T10:18:19.712Z,94928.00
2018-10-01T10:21:02.230Z,94932.00
2018-10-01T10:23:44.231Z,94939.00
2018-10-01T10:26:15.210Z,94943.00
2018-10-01T10:28:45.959Z,94946.00
2018-10-01T10:31:16.940Z,94959.00
2018-10-01T10:33:47.800Z,94957.00
2018-10-01T10:36:18.749Z,94958.00
2018-10-01T10:38:49.593Z,94960.00
2018-10-01T10:41:20.499Z,94964.00
2018-10-01T10:43:51.400Z,94967.00
2018-10-01T10:46:22.312Z,94964.00
2018-10-01T10:48:53.346Z,94978.00
2018-10-01T10:51:24.155Z,94990.00
2018-10-01T10:53:54.987Z,94984.00
2018-10-01T10:56:25.910Z,95000.00
2018-10-01T10:58:57.024Z,95016.00
2018-10-01T11:01:27.849Z,95008.00
2018-10-01T11:03:58.714Z,95018.00
2018-10-01T11:06:29.601Z,95018.00
2018-10-01T11:09:00.512Z,95026.00
2018-10-01T11:11:31.370Z,95038.00
2018-10-01T11:14:02.542Z,95033.00
2018-10-01T11:16:33.281Z,95034.00
2018-10-01T11:19:04.206Z,95038.00
2018-10-01T11:21:37.114Z,95037.00
2018-10-01T11:24:08.039Z,95029.00
2018-10-01T11:26:38.850Z,95033.00
2018-10-01T11:29:14.036Z,95037.00
2018-10-01T11:31:45.887Z,95034.00
2018-10-01T11:34:16.628Z,95024.00
2018-10-01T11:36:47.612Z,95030.00
2018-10-01T11:39:18.571Z,95028.00
2018-10-01T11:41:49.925Z,95032.00
2018-10-01T11:44:20.757Z,95030.00
2018-10-01T11:46:52.727Z,95044.00
2018-10-01T11:49:24.605Z,95040.00
2018-10-01T11:51:55.756Z,95052.00
2018-10-01T11:54:26.679Z,95053.00
2018-10-01T11:56:57.621Z,95049.00
2018-10-01T11:59:28.730Z,95051.00
2018-10-01T12:01:59.973Z,95053.00
2018-10-01T12:04:30.805Z,95060.00
2018-10-01T12:07:01.665Z,95053.00
2018-10-01T12:09:32.491Z,95050.00
2018-10-01T12:12:03.383Z,95058.00
2018-10-01T12:14:34.106Z,95058.00
2018-10-01T12:17:05.490Z,95072.00
2018-10-01T12:19:36.269Z,95068.00
2018-10-01T12:22:07.364Z,95068.00
2018-10-01T12:24:38.090Z,95074.00
2018-10-01T12:27:08.861Z,95081.00
2018-10-01T12:29:39.547Z,95084.00
2018-10-01T12:32:10.491Z,95085.00
2018-10-01T12:34:41.996Z,95090.00
2018-10-01T12:37:13.659Z,95087.00
2018-10-01T12:39:45.592Z,95106.00
2018-10-01T12:42:16.386Z,95107.00
2018-10-01T12:44:47.186Z,95107.00
2018-10-01T12:47:17.951Z,95114.00
2018-10-01T12:49:50.008Z,95112.00
2018-10-01T12:52:20.935Z,95121.00
2018-10-01T12:54:52.187Z,95117.00
2018-10-01T12:57:23.004Z,95124.00
2018-10-01T12:59:53.836Z,95123.00
2018-10-01T13:02:24.749Z,95122.00
2018-10-01T13:04:55.619Z,95136.00
2018-10-01T13:07:26.379Z,95137.00
2018-10-01T13:09:57.123Z,95140.00
2018-10-01T13:12:27.938Z,95143.00
2018-10-01T13:14:59.307Z,95146.00
2018-10-01T13:17:30.266Z,95150.00
2018-10-01T13:20:01.240Z,95156.00
2018-10-01T13:22:32.130Z,95163.00
2018-10-01T13:25:03.119Z,95169.00
2018-10-01T13:27:33.889Z,95184.00
2018-10-01T13:30:04.907Z,95180.00
2018-10-01T13:32:35.689Z,95190.00
2018-10-01T13:35:06.877Z,95190.00
2018-10-01T13:37:37.735Z,95195.00
2018-10-01T13:40:09.189Z,95188.00
2018-10-01T13:42:40.190Z,95202.00
2018-10-01T13:45:11.218Z,95202.00
2018-10-01T13:47:42.093Z,95210.00
2018-10-01T13:50:12.930Z,95206.00
2018-10-01T13:52:43.770Z,95201.00
2018-10-01T13:55:14.626Z,95200.00
2018-10-01T13:57:45.410Z,95202.00
2018-10-01T14:00:16.253Z,95214.00
2018-10-01T14:02:47.195Z,95205.00
2018-10-01T14:05:18.022Z,95211.00
2018-10-01T14:07:48.946Z,95206.00
2018-10-01T14:10:19.939Z,95210.00
2018-10-01T14:12:50.930Z,95219.00
2018-10-01T14:15:22.183Z,95222.00
2018-10-01T14:17:53.116Z,95230.00
2018-10-01T14:20:24.087Z,95233.00
2018-10-01T14:22:54.970Z,95235.00
2018-10-01T14:25:26.002Z,95239.00
2018-10-01T14:27:56.948Z,95241.00
2018-10-01T14:30:27.959Z,95253.00
2018-10-01T14:32:58.924Z,95255.00
2018-10-01T14:35:29.785Z,95252.00
2018-10-01T14:38:00.766Z,95258.00
2018-10-01T14:40:31.653Z,95250.00
2018-10-01T14:43:02.771Z,95258.00
2018-10-01T14:45:33.592Z,95258.00
2018-10-01T14:48:04.665Z,95268.00
2018-10-01T14:50:35.603Z,95265.00
2018-10-01T14:53:07.338Z,95271.00
2018-10-01T14:55:38.183Z,95266.00
2018-10-01T14:58:09.483Z,95274.00
2018-10-01T15:00:40.431Z,95274.00
2018-10-01T15:03:11.418Z,95273.00
2018-10-01T15:05:42.265Z,95269.00
2018-10-01T15:08:13.187Z,95281.00
2018-10-01T15:10:44.241Z,95284.00
2018-10-01T15:13:15.409Z,95282.00
2018-10-01T15:15:46.333Z,95278.00
2018-10-01T15:18:17.574Z,95273.00
2018-10-01T15:20:48.560Z,95269.00
2018-10-01T15:23:19.651Z,95275.00
2018-10-01T15:25:50.481Z,95272.00
2018-10-01T15:28:21.426Z,95273.00
2018-10-01T15:30:53.685Z,95270.00
2018-10-01T15:33:24.591Z,95274.00
2018-10-01T15:35:55.616Z,95272.00
2018-10-01T15:38:27.250Z,95273.00
2018-10-01T15:40:58.497Z,95288.00
2018-10-01T15:43:30.379Z,95286.00
2018-10-01T15:46:01.282Z,95291.00
2018-10-01T15:48:32.065Z,95289.00
2018-10-01T15:51:02.910Z,95289.00
2018-10-01T15:53:34.161Z,95286.00
2018-10-01T15:56:05.124Z,95289.00
2018-10-01T15:58:35.869Z,95289.00
2018-10-01T16:01:06.727Z,95292.00
2018-10-01T16:03:37.595Z,95296.00
2018-10-01T16:06:09.003Z,95305.00
2018-10-01T16:08:40.709Z,95312.00
2018-10-01T16:11:11.766Z,95311.00
2018-10-01T16:13:42.555Z,95314.00
2018-10-01T16:16:14.651Z,95322.00
2018-10-01T16:18:45.564Z,95331.00
2018-10-01T16:25:14.799Z,95349.00
2018-10-01T16:27:45.630Z,95349.00
2018-10-01T16:30:16.441Z,95348.00
2018-10-01T16:32:47.223Z,95352.00
2018-10-01T16:35:17.986Z,95357.00
2018-10-01T16:37:48.750Z,95362.00
2018-10-01T16:40:20.048Z,95365.00
2018-10-01T16:42:50.894Z,95364.00
2018-10-01T16:45:27.279Z,95365.00
2018-10-01T16:47:58.339Z,95369.00
2018-10-01T16:50:29.060Z,95372.00
2018-10-01T16:52:59.798Z,95380.00
2018-10-01T16:55:30.556Z,95379.00
2018-10-01T16:58:01.559Z,95395.00
2018-10-01T17:00:32.715Z,95394.00
2018-10-01T17:03:03.566Z,95404.00
2018-10-01T17:05:34.527Z,95410.00
2018-10-01T17:08:05.455Z,95415.00
2018-10-01T17:10:36.346Z,95420.00
2018-10-01T17:13:07.482Z,95419.00
2018-10-01T17:15:39.942Z,95425.00
2018-10-01T17:18:11.098Z,95428.00
2018-10-01T17:20:42.091Z,95427.00
2018-10-01T17:23:13.089Z,95439.00
2018-10-01T17:25:44.997Z,95441.00
2018-10-01T17:28:17.943Z,95444.00
2018-10-01T17:30:49.013Z,95452.00
2018-10-01T17:33:19.916Z,95458.00
2018-10-01T17:35:51.115Z,95468.00
2018-10-01T17:38:22.067Z,95474.00
2018-10-01T17:40:52.872Z,95481.00
2018-10-01T17:43:23.744Z,95483.00
2018-10-01T17:45:54.759Z,95487.00
2018-10-01T17:48:25.686Z,95485.00
2018-10-01T17:50:57.075Z,95484.00
2018-10-01T17:53:28.318Z,95483.00
2018-10-01T17:55:59.551Z,95481.00
2018-10-01T17:58:30.822Z,95488.00
2018-10-01T18:01:02.409Z,95498.00
2018-10-01T18:03:33.959Z,95500.00
2018-10-01T18:06:05.461Z,95503.00
2018-10-01T18:08:37.633Z,95501.00
2018-10-01T18:11:09.145Z,95505.00
2018-10-01T18:13:41.162Z,95512.00
2018-10-01T18:16:12.531Z,95507.00
2018-10-01T18:18:44.424Z,95506.00
2018-10-01T18:21:16.370Z,95512.00
2018-10-01T18:23:47.929Z,95511.00
2018-10-01T18:26:20.212Z,95517.00
2018-10-01T18:28:51.583Z,95520.00
2018-10-01T18:31:22.978Z,95520.00
2018-10-01T18:33:54.329Z,95521.00
2018-10-01T18:36:26.429Z,95525.00
2018-10-01T18:38:58.684Z,95533.00
2018-10-01T18:41:30.062Z,95538.00
2018-10-01T18:44:01.521Z,95541.00
2018-10-01T18:46:33.046Z,95540.00
2018-10-01T18:49:05.339Z,95539.00
2018-10-01T18:51:38.072Z,95541.00
2018-10-01T18:54:09.570Z,95544.00
2018-10-01T18:56:41.055Z,95549.00
2018-10-01T18:59:14.706Z,95550.00
2018-10-01T19:01:46.054Z,95556.00
2018-10-01T19:04:17.615Z,95559.00
2018-10-01T19:06:49.156Z,95569.00
2018-10-01T19:09:20.832Z,95570.00
2018-10-01T19:11:52.329Z,95569.00
2018-10-01T19:14:24.024Z,95569.00
2018-10-01T19:16:55.543Z,95571.00
2018-10-01T19:19:26.915Z,95571.00
2018-10-01T19:21:58.517Z,95571.00
2018-10-01T19:24:30.185Z,95572.00
2018-10-01T19:27:01.736Z,95583.00
2018-10-01T19:29:34.081Z,95586.00
2018-10-01T19:32:05.611Z,95588.00
2018-10-01T19:34:37.341Z,95584.00
2018-10-01T19:37:08.852Z,95587.00
2018-10-01T19:39:41.234Z,95590.00
2018-10-01T19:42:12.918Z,95591.00
2018-10-01T19:44:44.794Z,95585.00
2018-10-01T19:47:16.279Z,95579.00
2018-10-01T19:49:47.879Z,95591.00
2018-10-01T19:52:19.281Z,95589.00
2018-10-01T19:54:51.134Z,95582.00
2018-10-01T19:57:22.606Z,95591.00
2018-10-01T19:59:54.083Z,95592.00
2018-10-01T20:02:25.715Z,95591.00
2018-10-01T20:04:57.431Z,95595.00
2018-10-01T20:07:28.924Z,95599.00
2018-10-01T20:10:00.912Z,95596.00
2018-10-01T20:12:32.448Z,95593.00
2018-10-01T20:15:03.966Z,95594.00
2018-10-01T20:17:35.389Z,95582.00
2018-10-01T20:20:07.130Z,95588.00
2018-10-01T20:22:38.482Z,95593.00
2018-10-01T20:25:10.029Z,95594.00
2018-10-01T20:27:46.680Z,95592.00
2018-10-01T20:30:19.092Z,95593.00
2018-10-01T20:32:50.409Z,95598.00
2018-10-01T20:35:22.193Z,95592.00
2018-10-01T20:37:53.785Z,95591.00
2018-10-01T20:40:25.475Z,95589.00
2018-10-01T20:42:56.874Z,95594.00
2018-10-01T20:45:28.263Z,95589.00
2018-10-01T20:48:00.723Z,95585.00
2018-10-01T20:50:32.163Z,95590.00
2018-10-01T20:53:03.521Z,95593.00
2018-10-01T20:55:34.551Z,95597.00
2018-10-01T20:58:05.409Z,95598.00
2018-10-01T21:00:36.466Z,95598.00
2018-10-01T21:03:07.565Z,95597.00
2018-10-01T21:05:38.423Z,95595.00
2018-10-01T21:08:09.821Z,95599.00
2018-10-01T21:10:41.062Z,95593.00
2018-10-01T21:13:11.947Z,95593.00
2018-10-01T21:15:43.774Z,95594.00
2018-10-01T21:18:15.182Z,95597.00
2018-10-01T21:20:46.191Z,95600.00
2018-10-01T21:23:16.978Z,95600.00
2018-10-01T21:25:47.786Z,95601.00
2018-10-01T21:28:18.777Z,95599.00
2018-10-01T21:30:49.823Z,95613.00
2018-10-01T21:33:27.183Z,95620.00
2018-10-01T21:35:58.295Z,95623.00
2018-10-01T21:38:28.997Z,95627.00
2018-10-01T21:40:59.775Z,95626.00
2018-10-01T21:43:30.395Z,95626.00
2018-10-01T21:46:01.152Z,95627.00
2018-10-01T21:48:31.876Z,95622.00
2018-10-01T21:51:02.595Z,95619.00
2018-10-01T21:53:33.383Z,95616.00
2018-10-01T21:56:04.204Z,95610.00
2018-10-01T21:58:34.967Z,95613.00
2018-10-01T22:01:10.871Z,95613.00
2018-10-01T22:03:41.590Z,95612.00
2018-10-01T22:06:12.985Z,95606.00
2018-10-01T22:08:44.087Z,95609.00
2018-10-01T22:11:14.866Z,95613.00
2018-10-01T22:13:45.966Z,95613.00
2018-10-01T22:16:16.726Z,95605.00
2018-10-01T22:18:47.461Z,95597.00
2018-10-01T22:21:18.265Z,95597.00
2018-10-01T22:23:49.326Z,95602.00
2018-10-01T22:26:20.059Z,95602.00
2018-10-01T22:28:50.784Z,95596.00
2018-10-01T22:31:21.568Z,95600.00
2018-10-01T22:33:52.277Z,95598.00
2018-10-01T22:36:23.045Z,95606.00
2018-10-01T22:38:53.744Z,95602.00
2018-10-01T22:41:24.505Z,95607.00
2018-10-01T22:43:55.234Z,95610.00
2018-10-01T22:46:26.022Z,95607.00
2018-10-01T22:48:56.905Z,95604.00
2018-10-01T22:51:27.686Z,95608.00
2018-10-01T22:53:58.526Z,95609.00
2018-10-01T22:56:29.725Z,95605.00
2018-10-01T22:59:00.543Z,95606.00
2018-10-01T23:01:31.225Z,95610.00
2018-10-01T23:04:02.256Z,95621.00
2018-10-01T23:06:33.085Z,95620.00
2018-10-01T23:09:03.986Z,95616.00
2018-10-01T23:11:34.845Z,95613.00
2018-10-01T23:14:05.724Z,95610.00
2018-10-01T23:16:36.649Z,95615.00
2018-10-01T23:19:07.394Z,95613.00
2018-10-01T23:21:38.105Z,95611.00
2018-10-01T23:24:08.845Z,95615.00
2018-10-01T23:26:39.625Z,95614.00
2018-10-01T23:29:10.357Z,95614.00
2018-10-01T23:31:41.119Z,95619.00
2018-10-01T23:34:12.137Z,95611.00
2018-10-01T23:36:43.107Z,95604.00
2018-10-01T23:39:13.838Z,95600.00
2018-10-01T23:41:44.625Z,95596.00
2018-10-01T23:44:15.806Z,95589.00
2018-10-01T23:46:46.645Z,95572.00
2018-10-01T23:49:18.462Z,95570.00
2018-10-01T23:51:49.345Z,95584.00
2018-10-01T23:54:20.225Z,95600.00
2018-10-01T23:56:51.073Z,95608.00
2018-10-01T23:59:21.876Z,95603.00
